Time;durP1;ratioP1;P1;durP2;ratioP2;P2;SDS_P1;SDS_P2;PMS_P1;PMS_P2;Temp;Humidity;BMP_temperature;BMP_pressure;BME280_temperature;BME280_humidity;BME280_pressure;Samples;Min_cycle;Max_cycle;Signal;HPM_P1;HPM_P2
2024/01/24 00:01:42;;;;;;;;;;;;;;;16.54;58.35;100586.00;4975131;28;6993;-75
2024/01/24 00:04:08;;;;;;;;;;;;;;;16.55;58.24;100583.44;4974173;28;7423;-75
2024/01/24 00:06:35;;;;;;;;;;;;;;;16.56;58.73;100571.38;4964246;28;6772;-75
2024/01/24 00:09:01;;;;;;;;;;;;;;;16.59;58.35;100563.69;4982545;28;6971;-75
2024/01/24 00:11:27;;;;;;;;;;;;;;;16.60;58.57;100576.69;4986700;28;6980;-75
2024/01/24 00:13:52;;;;;;;;;;;;;;;16.63;58.52;100586.25;4994239;28;6966;-75
2024/01/24 00:16:18;;;;;;;;;;;;;;;16.63;58.77;100576.75;4980128;28;6988;-75
2024/01/24 00:18:43;;;;;;;;;;;;;;;16.71;58.37;100568.31;4993814;28;7022;-75
2024/01/24 00:21:09;;;;;;;;;;;;;;;16.74;58.18;100563.22;4976507;28;6970;-76
2024/01/24 00:23:35;;;;;;;;;;;;;;;16.78;58.61;100555.56;4985639;28;7225;-76
2024/01/24 00:26:00;;;;;;;;;;;;;;;16.82;58.19;100535.81;5001022;28;7117;-75
2024/01/24 00:28:26;;;;;;;;;;;;;;;16.88;57.64;100537.66;4984357;28;6859;-76
2024/01/24 00:30:52;;;;;;;;;;;;;;;16.90;57.68;100520.44;4966868;28;7227;-76
2024/01/24 00:33:18;;;;;;;;;;;;;;;16.94;57.60;100504.16;4982106;28;6768;-76
2024/01/24 00:35:43;;;;;;;;;;;;;;;16.97;57.50;100504.22;4985428;28;6768;-76
2024/01/24 00:38:09;;;;;;;;;;;;;;;17.01;57.07;100490.56;4986547;28;6975;-76
2024/01/24 00:40:34;;;;;;;;;;;;;;;17.04;57.49;100490.63;4987638;28;6779;-76
2024/01/24 00:43:01;;;;;;;;;;;;;;;17.07;56.85;100495.00;4987065;28;7008;-75
2024/01/24 00:45:26;;;;;;;;;;;;;;;17.10;56.72;100499.38;4986826;28;6964;-75
2024/01/24 00:47:52;;;;;;;;;;;;;;;17.13;56.71;100479.59;4988298;28;7187;-75
2024/01/24 00:50:18;;;;;;;;;;;;;;;17.18;56.89;100513.34;4991015;28;6951;-75
2024/01/24 00:52:43;;;;;;;;;;;;;;;17.20;56.46;100483.22;4988842;28;6963;-76
2024/01/24 00:55:09;;;;;;;;;;;;;;;17.22;56.23;100507.44;4991050;28;7175;-76
2024/01/24 00:57:35;;;;;;;;;;;;;;;17.24;56.26;100507.44;4975728;28;6947;-76
2024/01/24 01:00:00;;;;;;;;;;;;;;;17.28;56.56;100501.50;4973853;28;6936;-75
2024/01/24 01:02:26;;;;;;;;;;;;;;;17.30;56.43;100492.94;4985305;28;7316;-75
2024/01/24 01:04:51;;;;;;;;;;;;;;;17.32;56.32;100480.88;4988650;28;6950;-75
2024/01/24 01:07:17;;;;;;;;;;;;;;;17.35;56.38;100490.44;4990984;28;7237;-76
2024/01/24 01:09:42;;;;;;;;;;;;;;;17.37;56.40;100496.53;4969437;28;7019;-76
2024/01/24 01:12:08;;;;;;;;;;;;;;;17.40;56.28;100452.53;4969128;28;6952;-76
2024/01/24 01:14:34;;;;;;;;;;;;;;;17.44;55.83;100485.47;4984914;28;6788;-76
2024/01/24 01:16:59;;;;;;;;;;;;;;;17.48;55.65;100501.94;4980301;28;6854;-76
2024/01/24 01:19:25;;;;;;;;;;;;;;;17.50;55.50;100487.31;4994870;28;7087;-76
2024/01/24 01:21:50;;;;;;;;;;;;;;;17.53;55.44;100487.34;4993523;28;6958;-75
2024/01/24 01:24:16;;;;;;;;;;;;;;;17.55;55.67;100500.34;4972597;28;6916;-76
2024/01/24 01:26:42;;;;;;;;;;;;;;;17.56;55.67;100496.91;4988989;28;6768;-76
2024/01/24 01:29:08;;;;;;;;;;;;;;;17.57;55.29;100478.78;4991719;28;6764;-76
2024/01/24 01:31:33;;;;;;;;;;;;;;;17.54;55.08;100483.91;5006110;28;6776;-76
2024/01/24 01:34:00;;;;;;;;;;;;;;;17.53;55.31;100478.69;4979948;28;6779;-76
2024/01/24 01:36:26;;;;;;;;;;;;;;;17.53;54.84;100453.66;4982551;28;6796;-76
2024/01/24 01:38:52;;;;;;;;;;;;;;;17.53;54.99;100484.78;4985297;28;6796;-76
2024/01/24 01:41:18;;;;;;;;;;;;;;;17.54;55.01;100475.28;4968222;28;7187;-76
2024/01/24 01:43:44;;;;;;;;;;;;;;;17.56;54.93;100477.03;4967121;28;7280;-76
2024/01/24 01:46:21;;;;;;;;;;;;;;;17.57;55.21;100470.16;4985548;28;6923;-76
2024/01/24 01:48:49;;;;;;;;;;;;;;;17.60;54.63;100458.16;4995591;28;7250;-76
2024/01/24 01:51:17;;;;;;;;;;;;;;;17.62;54.61;100448.69;4983766;28;6792;-76
2024/01/24 01:53:45;;;;;;;;;;;;;;;17.67;54.76;100476.38;4984078;28;7894;-76
2024/01/24 01:56:15;;;;;;;;;;;;;;;17.70;54.83;100486.84;4982817;28;7220;-76
2024/01/24 01:58:42;;;;;;;;;;;;;;;17.71;54.59;100478.22;4968361;28;6975;-76
2024/01/24 02:01:08;;;;;;;;;;;;;;;17.74;54.55;100483.44;4986373;28;6808;-76
2024/01/24 02:03:34;;;;;;;;;;;;;;;17.75;54.54;100499.03;4974769;28;6940;-76
2024/01/24 02:06:03;;;;;;;;;;;;;;;17.77;54.65;100483.53;5006556;28;6952;-76
2024/01/24 02:08:32;;;;;;;;;;;;;;;17.77;54.13;100483.53;4990323;28;7027;-76
2024/01/24 02:10:58;;;;;;;;;;;;;;;17.80;54.41;100499.13;4988649;28;6883;-76
2024/01/24 02:13:27;;;;;;;;;;;;;;;17.80;54.21;100483.59;4971865;28;7221;-76
2024/01/24 02:15:53;;;;;;;;;;;;;;;17.80;54.36;100488.78;4993270;28;7324;-76
2024/01/24 02:18:19;;;;;;;;;;;;;;;17.84;54.32;100468.97;4968051;28;6963;-76
2024/01/24 02:20:46;;;;;;;;;;;;;;;17.85;53.93;100487.13;4987529;28;6965;-76
2024/01/24 02:23:15;;;;;;;;;;;;;;;17.89;54.22;100494.13;4987422;28;6978;-76
2024/01/24 02:25:40;;;;;;;;;;;;;;;17.90;54.23;100471.66;5000721;28;7237;-76
2024/01/24 02:28:06;;;;;;;;;;;;;;;17.94;53.75;100459.63;4969649;28;7059;-76
2024/01/24 02:30:31;;;;;;;;;;;;;;;17.94;53.92;100475.19;4985679;28;7099;-75
2024/01/24 02:32:58;;;;;;;;;;;;;;;17.88;54.12;100473.34;4987836;28;6953;-75
2024/01/24 02:35:25;;;;;;;;;;;;;;;17.74;53.76;100471.38;4988671;28;6997;-75
2024/01/24 02:37:50;;;;;;;;;;;;;;;17.55;54.70;100485.66;4976804;28;6996;-75
2024/01/24 02:40:16;;;;;;;;;;;;;;;17.34;55.21;100474.00;4979409;28;7062;-75
2024/01/24 02:42:42;;;;;;;;;;;;;;;17.19;56.08;100465.91;4995474;28;6833;-76
2024/01/24 02:45:08;;;;;;;;;;;;;;;17.02;56.13;100456.06;4987744;28;7252;-75
2024/01/24 02:47:33;;;;;;;;;;;;;;;16.90;56.80;100466.97;4972731;28;7060;-75
2024/01/24 02:50:01;;;;;;;;;;;;;;;16.80;57.03;100458.16;4984205;28;6931;-76
2024/01/24 02:52:27;;;;;;;;;;;;;;;16.72;57.36;100438.97;4984741;28;7052;-76
2024/01/24 02:54:53;;;;;;;;;;;;;;;16.65;58.02;100462.94;4986445;28;7303;-76
2024/01/24 02:57:19;;;;;;;;;;;;;;;16.61;57.73;100456.81;4983642;28;7201;-76
2024/01/24 02:59:44;;;;;;;;;;;;;;;16.57;58.49;100449.84;4990330;28;7173;-75
2024/01/24 03:02:10;;;;;;;;;;;;;;;16.55;58.50;100453.22;4989615;28;6941;-75
2024/01/24 03:04:36;;;;;;;;;;;;;;;16.50;58.53;100450.50;4990843;28;6964;-75
2024/01/24 03:07:03;;;;;;;;;;;;;;;16.45;59.16;100442.63;4988428;28;6804;-76
2024/01/24 03:09:28;;;;;;;;;;;;;;;16.43;59.16;100439.16;4965824;28;6846;-76
2024/01/24 03:11:54;;;;;;;;;;;;;;;16.41;59.37;100435.63;4982341;28;6983;-76
2024/01/24 03:14:21;;;;;;;;;;;;;;;16.41;59.69;100438.22;4979906;28;6784;-76
2024/01/24 03:16:47;;;;;;;;;;;;;;;16.40;59.58;100433.88;4986691;28;6780;-76
2024/01/24 03:19:13;;;;;;;;;;;;;;;16.38;60.26;100441.63;4983666;28;6879;-76
2024/01/24 03:21:40;;;;;;;;;;;;;;;16.38;60.04;100435.56;4989320;28;6984;-76
2024/01/24 03:24:06;;;;;;;;;;;;;;;16.35;60.31;100422.56;4992547;28;6972;-76
2024/01/24 03:26:32;;;;;;;;;;;;;;;16.33;60.69;100432.00;4978235;28;6990;-76
2024/01/24 03:28:58;;;;;;;;;;;;;;;16.31;60.76;100425.88;4978644;28;7004;-75
2024/01/24 03:31:23;;;;;;;;;;;;;;;16.29;60.98;100430.16;4980585;28;6796;-76
2024/01/24 03:33:49;;;;;;;;;;;;;;;16.29;61.05;100417.22;4979865;28;6760;-76
2024/01/24 03:36:14;;;;;;;;;;;;;;;16.27;61.62;100416.31;4979351;28;6780;-75
2024/01/24 03:38:40;;;;;;;;;;;;;;;16.26;61.40;100427.50;4966237;28;7028;-75
2024/01/24 03:41:06;;;;;;;;;;;;;;;16.25;61.48;100431.78;4973557;28;6768;-75
2024/01/24 03:43:31;;;;;;;;;;;;;;;16.27;61.38;100443.03;4974897;28;7339;-75
2024/01/24 03:45:57;;;;;;;;;;;;;;;16.28;61.61;100457.75;4964357;28;6959;-75
2024/01/24 03:48:23;;;;;;;;;;;;;;;16.30;61.50;100466.41;4958055;28;6965;-75
2024/01/24 03:50:48;;;;;;;;;;;;;;;16.31;61.49;100465.56;4973487;28;6851;-75
2024/01/24 03:53:14;;;;;;;;;;;;;;;16.31;61.26;100444.00;4979899;28;6947;-75
2024/01/24 03:55:40;;;;;;;;;;;;;;;16.32;61.60;100461.25;4971575;28;7203;-75
2024/01/24 03:58:06;;;;;;;;;;;;;;;16.30;61.88;100466.41;4961742;28;7351;-75
2024/01/24 04:00:32;;;;;;;;;;;;;;;16.30;62.01;100481.03;4956018;28;6935;-75
2024/01/24 04:02:57;;;;;;;;;;;;;;;16.29;62.07;100487.03;4958117;28;7195;-75
2024/01/24 04:05:23;;;;;;;;;;;;;;;16.27;62.03;100499.94;4973715;28;6872;-75
2024/01/24 04:07:49;;;;;;;;;;;;;;;16.25;62.55;100504.19;4973715;28;6764;-75
2024/01/24 04:10:15;;;;;;;;;;;;;;;16.27;62.45;100501.66;4971619;28;6772;-74
2024/01/24 04:12:42;;;;;;;;;;;;;;;16.26;62.12;100492.16;4967318;28;6991;-75
2024/01/24 04:15:08;;;;;;;;;;;;;;;16.27;62.65;100504.25;4976397;28;6854;-76
2024/01/24 04:17:34;;;;;;;;;;;;;;;16.30;62.26;100517.25;4972343;28;6935;-75
2024/01/24 04:19:59;;;;;;;;;;;;;;;16.37;62.56;100514.00;4974869;28;7157;-75
2024/01/24 04:22:25;;;;;;;;;;;;;;;16.46;62.35;100514.22;4956478;28;6943;-75
2024/01/24 04:24:50;;;;;;;;;;;;;;;16.56;61.75;100517.06;4955582;28;6943;-75
2024/01/24 04:27:16;;;;;;;;;;;;;;;16.61;61.72;100525.78;4990874;28;7043;-75
2024/01/24 04:29:42;;;;;;;;;;;;;;;16.62;61.51;100540.50;4986881;28;7938;-75
2024/01/24 04:32:09;;;;;;;;;;;;;;;16.58;61.36;100533.47;4973079;28;7245;-75
2024/01/24 04:34:35;;;;;;;;;;;;;;;16.52;61.36;100542.84;4980413;28;7016;-75
2024/01/24 04:37:01;;;;;;;;;;;;;;;16.48;61.45;100530.66;4973120;28;7932;-76
2024/01/24 04:39:27;;;;;;;;;;;;;;;16.44;61.86;100543.47;4976198;28;6815;-76
2024/01/24 04:41:53;;;;;;;;;;;;;;;16.42;61.63;100555.50;4973587;28;7182;-75
2024/01/24 04:44:20;;;;;;;;;;;;;;;16.42;61.83;100543.44;4971203;28;7853;-75
2024/01/24 05:57:49;;;;;;;;;;;;;;;16.33;55.09;100618.22;4583045;23;7048;-76
2024/01/24 06:00:14;;;;;;;;;;;;;;;16.36;54.79;100660.53;4970492;28;6966;-76
2024/01/24 06:02:43;;;;;;;;;;;;;;;16.38;54.65;100652.81;4958161;28;7315;-76
2024/01/24 06:05:09;;;;;;;;;;;;;;;16.40;54.07;100655.47;4941620;28;7351;-76
2024/01/24 06:07:35;;;;;;;;;;;;;;;16.43;53.71;100656.44;4956746;28;7284;-77
2024/01/24 06:10:00;;;;;;;;;;;;;;;16.44;54.15;100677.97;4953668;28;6800;-76
2024/01/24 06:12:27;;;;;;;;;;;;;;;16.45;53.85;100690.97;4955854;28;8293;-76
2024/01/24 06:14:55;;;;;;;;;;;;;;;16.46;53.78;100707.34;4957517;28;7135;-76
2024/01/24 06:17:22;;;;;;;;;;;;;;;16.50;53.31;100715.25;4953309;28;6808;-77
2024/01/24 06:19:50;;;;;;;;;;;;;;;16.51;53.53;100701.50;4954434;28;7317;-76
2024/01/24 06:22:16;;;;;;;;;;;;;;;16.52;52.89;100703.25;4962211;28;7148;-77
2024/01/24 06:24:42;;;;;;;;;;;;;;;16.54;52.67;100705.88;4936144;28;8953;-77
2024/01/24 06:27:08;;;;;;;;;;;;;;;16.56;52.33;100706.78;4952304;28;6816;-76
2024/01/24 06:29:34;;;;;;;;;;;;;;;16.56;52.37;100700.75;4939757;28;7279;-77
2024/01/24 06:32:00;;;;;;;;;;;;;;;16.55;52.55;100712.78;4939739;28;7210;-77
2024/01/24 06:34:26;;;;;;;;;;;;;;;16.54;52.26;100738.63;4954251;28;7512;-77
2024/01/24 06:36:52;;;;;;;;;;;;;;;16.54;52.24;100734.31;4954816;28;6788;-76
2024/01/24 06:39:18;;;;;;;;;;;;;;;16.51;51.86;100727.38;4947711;28;8004;-77
2024/01/24 06:41:46;;;;;;;;;;;;;;;16.51;52.08;100717.03;4951002;28;7535;-77
2024/01/24 06:44:12;;;;;;;;;;;;;;;16.49;52.27;100710.06;4972257;28;6808;-77
2024/01/24 06:46:44;;;;;;;;;;;;;;;16.45;51.43;100727.19;4936743;28;7068;-77
2024/01/24 06:49:10;;;;;;;;;;;;;;;16.43;51.33;100721.09;4954226;28;7057;-77
2024/01/24 06:51:39;;;;;;;;;;;;;;;16.38;51.26;100746.84;4937312;28;6859;-77
2024/01/24 06:54:08;;;;;;;;;;;;;;;16.37;51.34;100693.34;4953584;28;6992;-76
2024/01/24 06:56:33;;;;;;;;;;;;;;;16.35;51.54;100746.72;4961861;28;8153;-77
2024/01/24 06:59:00;;;;;;;;;;;;;;;16.34;51.37;100749.28;4952544;28;6788;-77
2024/01/24 07:01:26;;;;;;;;;;;;;;;16.31;51.15;100734.53;4934094;28;7197;-77
2024/01/24 07:03:52;;;;;;;;;;;;;;;16.25;51.50;100755.03;4942990;28;8293;-77
2024/01/24 07:06:18;;;;;;;;;;;;;;;16.21;51.15;100748.88;4947507;28;7992;-77
2024/01/24 07:08:44;;;;;;;;;;;;;;;16.16;51.53;100770.28;4958847;28;7411;-78
2024/01/24 07:11:10;;;;;;;;;;;;;;;16.13;51.19;100770.19;4957726;28;6955;-77
2024/01/24 07:13:37;;;;;;;;;;;;;;;16.09;51.57;100769.22;4961412;28;7226;-78
2024/01/24 07:16:04;;;;;;;;;;;;;;;16.08;51.30;100783.84;4963796;28;6780;-78
2024/01/24 07:18:33;;;;;;;;;;;;;;;16.07;51.40;100786.38;4940164;28;8692;-77
2024/01/24 07:21:00;;;;;;;;;;;;;;;16.05;51.57;100764.78;4970427;28;6979;-77
2024/01/24 07:23:27;;;;;;;;;;;;;;;16.03;51.40;100780.25;4955804;28;7794;-77
2024/01/24 07:25:53;;;;;;;;;;;;;;;16.03;51.48;100800.03;4965974;28;7136;-77
2024/01/24 07:28:18;;;;;;;;;;;;;;;16.02;51.77;100794.00;4959027;28;8099;-77
2024/01/24 07:30:44;;;;;;;;;;;;;;;16.05;51.37;100813.91;4950287;28;6824;-78
2024/01/24 07:33:10;;;;;;;;;;;;;;;16.06;51.51;100821.69;4950226;28;6934;-77
2024/01/24 07:35:36;;;;;;;;;;;;;;;16.08;51.48;100825.22;4958815;28;6796;-77
2024/01/24 07:38:01;;;;;;;;;;;;;;;16.08;51.59;100851.09;4952888;28;6788;-77
2024/01/24 07:40:27;;;;;;;;;;;;;;;16.11;51.41;100845.09;4972296;28;7102;-77
2024/01/24 07:42:53;;;;;;;;;;;;;;;16.10;51.08;100852.00;4954686;28;6764;-77
2024/01/24 07:45:18;;;;;;;;;;;;;;;16.12;51.78;100852.03;4947665;28;6972;-77
2024/01/24 07:47:44;;;;;;;;;;;;;;;16.13;51.36;100874.50;4954770;28;7075;-77
2024/01/24 07:50:13;;;;;;;;;;;;;;;16.13;50.91;100859.00;4953224;28;6780;-77
2024/01/24 07:52:39;;;;;;;;;;;;;;;16.13;51.01;100882.25;4955899;28;7209;-77
2024/01/24 07:55:05;;;;;;;;;;;;;;;16.12;50.79;100895.13;4956053;28;6736;-77
2024/01/24 07:57:31;;;;;;;;;;;;;;;16.14;50.77;100891.78;4955522;28;6792;-77
2024/01/24 07:59:56;;;;;;;;;;;;;;;16.16;50.41;100900.47;4948447;28;6791;-77
2024/01/24 08:02:22;;;;;;;;;;;;;;;16.15;50.59;100878.00;4937532;28;7324;-77
2024/01/24 08:04:47;;;;;;;;;;;;;;;16.17;50.11;100889.28;4962531;28;6931;-77
2024/01/24 08:07:13;;;;;;;;;;;;;;;16.15;50.14;100898.69;4957212;28;7216;-77
2024/01/24 08:09:39;;;;;;;;;;;;;;;16.16;50.20;100899.56;4962353;28;7175;-77
2024/01/24 08:12:05;;;;;;;;;;;;;;;16.15;49.81;100914.22;4953305;28;7130;-77
2024/01/24 08:14:30;;;;;;;;;;;;;;;16.14;49.74;100921.91;4963740;28;6984;-77
2024/01/24 08:17:08;;;;;;;;;;;;;;;16.14;50.23;100915.03;4962226;28;6860;-76
2024/01/24 08:19:34;;;;;;;;;;;;;;;16.12;49.81;100908.06;4949262;28;6986;-76
2024/01/24 08:22:00;;;;;;;;;;;;;;;16.11;49.80;100920.09;4945825;28;6968;-76
2024/01/24 08:24:26;;;;;;;;;;;;;;;16.12;49.95;100923.56;4948396;28;7973;-76
2024/01/24 08:26:52;;;;;;;;;;;;;;;16.10;49.64;100924.41;4944347;28;7884;-76
2024/01/24 08:29:19;;;;;;;;;;;;;;;16.07;49.60;100936.34;4957014;28;7143;-76
2024/01/24 08:31:45;;;;;;;;;;;;;;;16.01;49.72;100961.97;4958299;28;7382;-76
2024/01/24 08:34:11;;;;;;;;;;;;;;;15.93;50.09;100954.84;4958046;28;7428;-76
2024/01/24 08:36:37;;;;;;;;;;;;;;;15.87;49.71;100958.88;4940776;28;7186;-76
2024/01/24 08:39:05;;;;;;;;;;;;;;;15.84;49.99;100967.44;4940988;28;7910;-76
2024/01/24 08:41:31;;;;;;;;;;;;;;;15.80;49.77;100969.00;4956740;28;6835;-76
2024/01/24 08:43:59;;;;;;;;;;;;;;;15.82;50.24;100974.22;4958071;28;6752;-76
2024/01/24 08:46:25;;;;;;;;;;;;;;;15.81;49.88;100983.69;4939862;28;7087;-76
2024/01/24 08:48:51;;;;;;;;;;;;;;;15.78;50.02;100986.16;4956113;28;7128;-76
2024/01/24 08:51:18;;;;;;;;;;;;;;;15.75;49.93;100972.25;4950867;28;7221;-76
2024/01/24 08:53:43;;;;;;;;;;;;;;;15.72;50.57;100990.22;4948689;28;8418;-76
2024/01/24 08:56:11;;;;;;;;;;;;;;;15.72;49.90;101004.03;4955703;28;6772;-76
2024/01/24 08:58:37;;;;;;;;;;;;;;;15.75;50.09;101005.84;4957969;28;6996;-76
2024/01/24 09:01:03;;;;;;;;;;;;;;;15.78;50.03;101009.41;4956811;28;6773;-76
2024/01/24 09:03:29;;;;;;;;;;;;;;;15.81;49.94;101008.66;4957400;28;6952;-76
2024/01/24 09:05:54;;;;;;;;;;;;;;;15.85;49.50;101007.94;4955941;28;6780;-76
2024/01/24 09:08:20;;;;;;;;;;;;;;;15.90;49.40;100983.16;4937265;28;7572;-76
2024/01/24 09:10:46;;;;;;;;;;;;;;;15.93;49.45;101001.38;4956395;28;6840;-76
2024/01/24 09:13:12;;;;;;;;;;;;;;;15.99;49.57;100994.66;4953205;28;6772;-76
2024/01/24 09:15:38;;;;;;;;;;;;;;;16.03;49.22;101004.25;4953613;28;6803;-76
2024/01/24 09:18:07;;;;;;;;;;;;;;;16.07;49.32;100994.09;4958276;28;6812;-76
2024/01/24 09:20:33;;;;;;;;;;;;;;;16.13;48.90;100992.56;4956425;28;6792;-76
2024/01/24 09:22:58;;;;;;;;;;;;;;;16.19;48.80;101000.53;4944359;28;6963;-76
2024/01/24 09:25:24;;;;;;;;;;;;;;;16.28;48.34;101023.25;4942141;28;7026;-76
2024/01/24 09:27:50;;;;;;;;;;;;;;;16.35;48.19;101038.16;4961727;28;6945;-75
2024/01/24 09:30:16;;;;;;;;;;;;;;;16.40;47.76;101023.66;4945788;28;7583;-73
2024/01/24 09:32:41;;;;;;;;;;;;;;;16.45;47.84;101029.88;4964876;28;6785;-74
2024/01/24 09:35:08;;;;;;;;;;;;;;;16.50;47.49;101040.38;4965668;28;7273;-74
2024/01/24 09:37:33;;;;;;;;;;;;;;;16.51;47.08;101026.59;4965761;28;6821;-76
2024/01/24 09:39:59;;;;;;;;;;;;;;;16.51;47.04;101026.59;4951771;28;6987;-74
2024/01/24 09:42:26;;;;;;;;;;;;;;;16.51;46.73;101043.03;4954810;28;7236;-75
2024/01/24 09:44:52;;;;;;;;;;;;;;;16.55;46.89;101076.75;4965125;28;7263;-73
2024/01/24 09:47:24;;;;;;;;;;;;;;;16.56;46.84;101081.97;4947353;28;7900;-74
2024/01/24 09:49:51;;;;;;;;;;;;;;;16.58;46.78;101095.88;4968100;28;6966;-75
2024/01/24 09:52:26;;;;;;;;;;;;;;;16.57;46.41;101088.03;4963779;28;6794;-75
2024/01/24 09:55:04;;;;;;;;;;;;;;;16.56;46.34;101089.72;4968299;28;7015;-74
2024/01/24 09:57:31;;;;;;;;;;;;;;;16.54;46.06;101103.47;4947279;28;8200;-74
2024/01/24 09:59:57;;;;;;;;;;;;;;;16.48;46.04;101101.53;4964627;28;7251;-73
2024/01/24 10:02:26;;;;;;;;;;;;;;;16.48;46.23;101115.34;4952387;28;7202;-74
2024/01/24 10:04:52;;;;;;;;;;;;;;;16.45;46.06;101117.84;4947433;28;8139;-73
2024/01/24 10:07:19;;;;;;;;;;;;;;;16.44;45.90;101105.72;4961576;28;6927;-73
2024/01/24 10:10:03;;;;;;;;;;;;;;;16.45;46.20;101088.47;4963922;28;7027;-75
2024/01/24 10:12:30;;;;;;;;;;;;;;;16.44;45.94;101097.06;4954126;28;7008;-74
2024/01/24 10:14:56;;;;;;;;;;;;;;;16.44;45.79;101102.25;4964207;28;6804;-75
2024/01/24 10:17:22;;;;;;;;;;;;;;;16.43;45.71;101111.72;4961506;28;7429;-75
2024/01/24 10:19:48;;;;;;;;;;;;;;;16.43;45.61;101127.25;4963250;28;6860;-74
2024/01/24 10:22:14;;;;;;;;;;;;;;;16.42;45.16;101133.25;4960180;28;6954;-74
2024/01/24 10:24:40;;;;;;;;;;;;;;;16.42;45.03;101124.59;4960483;28;6796;-75
2024/01/24 10:27:09;;;;;;;;;;;;;;;16.43;45.19;101147.06;4962271;28;7394;-75
2024/01/24 10:29:34;;;;;;;;;;;;;;;16.43;45.03;101147.94;4964191;28;6792;-75
2024/01/24 10:32:01;;;;;;;;;;;;;;;16.46;45.07;101142.88;4942320;28;6958;-75
2024/01/24 10:34:27;;;;;;;;;;;;;;;16.50;44.97;101142.16;4965155;28;6947;-75
2024/01/24 10:36:53;;;;;;;;;;;;;;;16.52;44.75;101153.47;4953188;28;6909;-74
2024/01/24 10:39:22;;;;;;;;;;;;;;;16.56;44.84;101153.56;4956711;28;6977;-74
2024/01/24 10:41:54;;;;;;;;;;;;;;;16.59;44.61;101132.94;4962737;28;6804;-74
2024/01/24 10:44:25;;;;;;;;;;;;;;;16.63;44.97;101158.13;4950616;28;7056;-75
2024/01/24 10:46:51;;;;;;;;;;;;;;;16.67;44.80;101147.03;4952690;28;6989;-74
2024/01/24 10:49:18;;;;;;;;;;;;;;;16.73;43.93;101159.31;4959389;28;7211;-74
2024/01/24 10:51:47;;;;;;;;;;;;;;;16.73;44.22;101151.56;4960438;28;7005;-74
2024/01/24 10:54:18;;;;;;;;;;;;;;;16.74;44.03;101161.97;4957267;28;6788;-73
2024/01/24 10:56:53;;;;;;;;;;;;;;;16.77;44.24;101176.72;4961242;28;6819;-75
2024/01/24 10:59:19;;;;;;;;;;;;;;;16.78;44.05;101174.19;4953697;28;6984;-74
2024/01/24 11:01:46;;;;;;;;;;;;;;;16.80;44.32;101175.13;4963951;28;6931;-75
2024/01/24 11:04:21;;;;;;;;;;;;;;;16.80;44.15;101175.13;4962252;28;6999;-74
2024/01/24 11:07:14;;;;;;;;;;;;;;;16.81;43.63;101165.66;4960979;28;7533;-74
2024/01/24 11:10:09;;;;;;;;;;;;;;;16.82;44.19;101192.44;4970082;28;7067;-74
2024/01/24 11:12:34;;;;;;;;;;;;;;;16.81;43.73;101181.19;4962076;28;6892;-74
2024/01/24 11:15:08;;;;;;;;;;;;;;;16.84;43.74;101198.53;4961625;28;6917;-73
2024/01/24 11:17:34;;;;;;;;;;;;;;;16.87;43.97;101201.22;4960927;28;7249;-74
2024/01/24 11:20:06;;;;;;;;;;;;;;;16.91;44.19;101203.09;4949406;28;7391;-74
2024/01/24 11:22:32;;;;;;;;;;;;;;;16.98;43.88;101183.47;4945975;28;7173;-74
2024/01/24 11:24:59;;;;;;;;;;;;;;;17.06;44.04;101188.09;4961664;28;6983;-76
2024/01/24 11:27:37;;;;;;;;;;;;;;;17.19;44.02;101198.88;4960246;28;7267;-76
2024/01/24 11:30:05;;;;;;;;;;;;;;;17.32;43.34;101205.34;4961911;28;6792;-74
2024/01/24 11:32:55;;;;;;;;;;;;;;;17.45;43.55;101188.50;4956422;28;7690;-76
2024/01/24 11:35:31;;;;;;;;;;;;;;;17.54;43.55;101211.25;4955673;28;7794;-75
2024/01/24 11:38:05;;;;;;;;;;;;;;;17.60;43.05;101220.09;4959843;28;6991;-75
2024/01/24 11:40:40;;;;;;;;;;;;;;;17.63;42.81;101224.50;4945884;28;6819;-75
2024/01/24 11:43:06;;;;;;;;;;;;;;;17.60;42.54;101221.81;4959875;28;7223;-75
2024/01/24 11:45:34;;;;;;;;;;;;;;;17.55;42.43;101216.47;4959208;28;7272;-75
2024/01/24 11:48:00;;;;;;;;;;;;;;;17.48;42.30;101223.16;4977199;28;6954;-75
2024/01/24 11:50:25;;;;;;;;;;;;;;;17.43;42.33;101219.56;4990064;28;6933;-76
2024/01/24 11:52:58;;;;;;;;;;;;;;;17.44;42.65;101216.13;4967513;28;6812;-76
2024/01/24 11:55:24;;;;;;;;;;;;;;;17.48;41.86;101217.97;4975551;28;6858;-75
2024/01/24 11:57:49;;;;;;;;;;;;;;;17.50;42.07;101205.09;4971729;28;7015;-76
2024/01/24 12:00:16;;;;;;;;;;;;;;;17.59;42.09;101209.66;4962483;28;8339;-76
2024/01/24 12:02:42;;;;;;;;;;;;;;;17.79;42.04;101212.91;4978631;28;6820;-76
2024/01/24 12:05:09;;;;;;;;;;;;;;;17.88;40.91;101225.25;4963036;28;6955;-75
2024/01/24 12:07:34;;;;;;;;;;;;;;;17.93;40.93;101221.13;4977313;28;6796;-75
2024/01/24 12:10:00;;;;;;;;;;;;;;;17.96;40.45;101230.69;4989530;28;6764;-76
2024/01/24 12:20:13;;;;;;;;;;;;;;;18.41;40.95;101221.69;4274909;23;6922;-76
2024/01/24 12:22:39;;;;;;;;;;;;;;;18.44;40.65;101260.69;4999187;28;7248;-76
2024/01/24 12:25:07;;;;;;;;;;;;;;;18.35;40.24;101257.81;4997630;28;6768;-76
2024/01/24 12:27:33;;;;;;;;;;;;;;;18.21;40.33;101249.63;4996317;28;6997;-76
2024/01/24 12:29:59;;;;;;;;;;;;;;;18.06;40.60;101250.06;4999999;28;7219;-76
2024/01/24 12:32:24;;;;;;;;;;;;;;;17.93;40.55;101253.94;5000721;28;7356;-76
2024/01/24 12:52:58;;;;;;;;;;;;;;;17.59;41.07;101277.97;4513592;23;7022;-75
2024/01/24 12:57:59;;;;;;;;;;;;;;;17.48;40.65;101267.22;5067571;23;6902;-77
2024/01/24 13:00:25;;;;;;;;;;;;;;;17.42;41.16;101264.41;4965841;28;6931;-77
2024/01/24 13:02:52;;;;;;;;;;;;;;;17.37;40.89;101276.34;4966415;28;6784;-76
2024/01/24 13:05:18;;;;;;;;;;;;;;;17.31;40.57;101268.34;4967789;28;7240;-75
2024/01/24 13:07:44;;;;;;;;;;;;;;;17.27;41.64;101266.50;4970163;28;6919;-76
2024/01/24 13:10:11;;;;;;;;;;;;;;;17.27;41.10;101275.13;4976879;28;6784;-76
2024/01/24 13:12:37;;;;;;;;;;;;;;;17.25;41.37;101281.97;4973376;28;6800;-76
2024/01/24 13:15:04;;;;;;;;;;;;;;;17.22;41.01;101284.47;4969949;28;6884;-76
2024/01/24 13:17:30;;;;;;;;;;;;;;;17.20;41.58;101294.78;4953465;28;6998;-76
2024/01/24 13:19:56;;;;;;;;;;;;;;;17.17;41.49;101289.50;4976368;28;6792;-76
2024/01/24 13:22:21;;;;;;;;;;;;;;;17.10;41.15;101291.81;4963202;28;7219;-76
2024/01/24 13:24:47;;;;;;;;;;;;;;;17.04;41.32;101288.19;4973511;28;6932;-76
2024/01/24 13:27:13;;;;;;;;;;;;;;;17.00;41.51;101296.69;4955871;28;7095;-76
2024/01/24 13:29:40;;;;;;;;;;;;;;;16.96;41.13;101296.47;4978248;28;7194;-76
2024/01/24 13:32:06;;;;;;;;;;;;;;;16.94;41.35;101322.31;4971527;28;6783;-76
2024/01/24 13:34:31;;;;;;;;;;;;;;;16.96;41.63;101293.88;4971890;28;7037;-77
2024/01/24 13:36:57;;;;;;;;;;;;;;;16.97;41.37;101304.28;4962984;28;6941;-76
2024/01/24 13:39:23;;;;;;;;;;;;;;;17.00;41.49;101304.44;4971059;28;7092;-76
2024/01/24 13:41:48;;;;;;;;;;;;;;;17.01;41.13;101321.75;4973189;28;7003;-76
2024/01/24 13:44:14;;;;;;;;;;;;;;;17.01;41.25;101306.22;4952532;28;7019;-76
2024/01/24 13:46:40;;;;;;;;;;;;;;;17.02;41.03;101314.84;4960704;28;7027;-76
2024/01/24 13:49:09;;;;;;;;;;;;;;;17.02;40.96;101325.19;4974238;28;6784;-76
2024/01/24 13:51:36;;;;;;;;;;;;;;;17.00;41.00;101338.13;4951113;28;6994;-77
2024/01/24 13:54:02;;;;;;;;;;;;;;;16.97;41.14;101330.19;4969826;28;6820;-77
2024/01/24 13:56:28;;;;;;;;;;;;;;;16.93;41.05;101336.09;4966237;28;6856;-76
2024/01/24 13:58:54;;;;;;;;;;;;;;;16.89;40.71;101335.09;4962534;28;6796;-77
2024/01/24 14:01:19;;;;;;;;;;;;;;;16.82;41.32;101340.00;4940667;28;7680;-76
2024/01/24 14:03:46;;;;;;;;;;;;;;;16.76;41.20;101343.22;4973265;28;7121;-77
2024/01/24 14:06:12;;;;;;;;;;;;;;;16.70;41.21;101346.44;4973447;28;11658;-76
2024/01/24 14:08:37;;;;;;;;;;;;;;;16.64;41.29;101354.00;4962164;28;6796;-76
2024/01/24 14:11:07;;;;;;;;;;;;;;;16.62;41.32;101333.22;4939794;28;9625;-76
2024/01/24 14:13:33;;;;;;;;;;;;;;;16.61;41.44;101343.50;4980369;28;6986;-76
2024/01/24 14:15:59;;;;;;;;;;;;;;;16.57;41.17;101352.88;4964236;28;6799;-75
2024/01/24 14:18:25;;;;;;;;;;;;;;;16.52;41.48;101365.63;4965781;28;6784;-76
2024/01/24 14:20:50;;;;;;;;;;;;;;;16.51;41.69;101376.81;4963589;28;7147;-76
2024/01/24 14:23:16;;;;;;;;;;;;;;;16.50;41.69;101374.16;4954413;28;6946;-78
2024/01/24 14:25:42;;;;;;;;;;;;;;;16.48;41.64;101376.69;4980235;28;6956;-78